sensor_id;sensor_type;location;lat;lon;timestamp;pressure;altitude;pressure_sealevel;temperature
15845;BMP180;50807;52.436;13.346;2022-11-20T00:00:03;100701.00;;;4.90
15845;BMP180;50807;52.436;13.346;2022-11-20T00:00:34;100703.00;;;4.90
15845;BMP180;50807;52.436;13.346;2022-11-20T00:01:07;100702.00;;;4.90
15845;BMP180;50807;52.436;13.346;2022-11-20T00:01:39;100706.00;;;5.00
15845;BMP180;50807;52.436;13.346;2022-11-20T00:02:10;100706.00;;;5.00
15845;BMP180;50807;52.436;13.346;2022-11-20T00:02:41;100697.00;;;5.00
15845;BMP180;50807;52.436;13.346;2022-11-20T00:03:13;100695.00;;;5.00
15845;BMP180;50807;52.436;13.346;2022-11-20T00:03:44;100698.00;;;5.00
15845;BMP180;50807;52.436;13.346;2022-11-20T00:04:15;100706.00;;;5.00
15845;BMP180;50807;52.436;13.346;2022-11-20T00:04:47;100697.00;;;5.00
15845;BMP180;50807;52.436;13.346;2022-11-20T00:05:18;100706.00;;;5.00
15845;BMP180;50807;52.436;13.346;2022-11-20T00:05:49;100696.00;;;5.00
15845;BMP180;50807;52.436;13.346;2022-11-20T00:06:21;100698.00;;;5.00
15845;BMP180;50807;52.436;13.346;2022-11-20T00:06:53;100696.00;;;5.00
15845;BMP180;50807;52.436;13.346;2022-11-20T00:07:23;100699.00;;;4.90
15845;BMP180;50807;52.436;13.346;2022-11-20T00:07:54;100694.00;;;5.00
15845;BMP180;50807;52.436;13.346;2022-11-20T00:08:26;100691.00;;;5.00
15845;BMP180;50807;52.436;13.346;2022-11-20T00:08:59;100685.00;;;4.90
15845;BMP180;50807;52.436;13.346;2022-11-20T00:09:31;100687.00;;;4.90
15845;BMP180;50807;52.436;13.346;2022-11-20T00:10:03;100689.00;;;4.90
15845;BMP180;50807;52.436;13.346;2022-11-20T00:10:36;100685.00;;;4.90
15845;BMP180;50807;52.436;13.346;2022-11-20T00:11:11;100693.00;;;4.90
15845;BMP180;50807;52.436;13.346;2022-11-20T00:11:43;100682.00;;;4.90
15845;BMP180;50807;52.436;13.346;2022-11-20T00:12:15;100686.00;;;4.90
15845;BMP180;50807;52.436;13.346;2022-11-20T00:12:46;100684.00;;;4.90
15845;BMP180;50807;52.436;13.346;2022-11-20T00:13:17;100685.00;;;4.90
15845;BMP180;50807;52.436;13.346;2022-11-20T00:13:50;100684.00;;;4.90
15845;BMP180;50807;52.436;13.346;2022-11-20T00:14:22;100694.00;;;4.90
15845;BMP180;50807;52.436;13.346;2022-11-20T00:14:53;100687.00;;;4.90
15845;BMP180;50807;52.436;13.346;2022-11-20T00:15:24;100683.00;;;4.90
15845;BMP180;50807;52.436;13.346;2022-11-20T00:16:01;100685.00;;;4.80
15845;BMP180;50807;52.436;13.346;2022-11-20T00:16:32;100688.00;;;4.90
15845;BMP180;50807;52.436;13.346;2022-11-20T00:17:04;100678.00;;;4.90
15845;BMP180;50807;52.436;13.346;2022-11-20T00:17:34;100683.00;;;4.90
15845;BMP180;50807;52.436;13.346;2022-11-20T00:18:06;100691.00;;;4.90
15845;BMP180;50807;52.436;13.346;2022-11-20T00:18:37;100684.00;;;4.90
15845;BMP180;50807;52.436;13.346;2022-11-20T00:19:09;100695.00;;;4.90
15845;BMP180;50807;52.436;13.346;2022-11-20T00:19:41;100689.00;;;4.90
15845;BMP180;50807;52.436;13.346;2022-11-20T00:20:12;100689.00;;;4.90
15845;BMP180;50807;52.436;13.346;2022-11-20T00:20:43;100687.00;;;4.90
15845;BMP180;50807;52.436;13.346;2022-11-20T00:21:17;100684.00;;;4.90
15845;BMP180;50807;52.436;13.346;2022-11-20T00:21:48;100683.00;;;4.90
15845;BMP180;50807;52.436;13.346;2022-11-20T00:22:21;100697.00;;;5.00
15845;BMP180;50807;52.436;13.346;2022-11-20T00:22:53;100687.00;;;4.90
15845;BMP180;50807;52.436;13.346;2022-11-20T00:23:24;100686.00;;;5.00
15845;BMP180;50807;52.436;13.346;2022-11-20T00:23:56;100681.00;;;4.90
15845;BMP180;50807;52.436;13.346;2022-11-20T00:24:28;100686.00;;;5.00
15845;BMP180;50807;52.436;13.346;2022-11-20T00:24:59;100688.00;;;5.00
15845;BMP180;50807;52.436;13.346;2022-11-20T00:25:30;100690.00;;;5.00
15845;BMP180;50807;52.436;13.346;2022-11-20T00:26:05;100692.00;;;4.90
15845;BMP180;50807;52.436;13.346;2022-11-20T00:26:37;100691.00;;;4.90
15845;BMP180;50807;52.436;13.346;2022-11-20T00:27:09;100676.00;;;4.90
15845;BMP180;50807;52.436;13.346;2022-11-20T00:27:39;100691.00;;;4.90
15845;BMP180;50807;52.436;13.346;2022-11-20T00:28:12;100694.00;;;4.90
15845;BMP180;50807;52.436;13.346;2022-11-20T00:28:44;100682.00;;;4.90
15845;BMP180;50807;52.436;13.346;2022-11-20T00:29:15;100686.00;;;4.90
15845;BMP180;50807;52.436;13.346;2022-11-20T00:29:46;100683.00;;;4.90
15845;BMP180;50807;52.436;13.346;2022-11-20T00:30:18;100685.00;;;4.90
15845;BMP180;50807;52.436;13.346;2022-11-20T00:30:48;100692.00;;;4.90
15845;BMP180;50807;52.436;13.346;2022-11-20T00:31:21;100682.00;;;4.90
15845;BMP180;50807;52.436;13.346;2022-11-20T00:31:51;100686.00;;;4.90
15845;BMP180;50807;52.436;13.346;2022-11-20T00:32:22;100682.00;;;4.90
15845;BMP180;50807;52.436;13.346;2022-11-20T00:32:56;100692.00;;;4.90
15845;BMP180;50807;52.436;13.346;2022-11-20T00:33:27;100693.00;;;4.90
15845;BMP180;50807;52.436;13.346;2022-11-20T00:33:58;100679.00;;;4.90
15845;BMP180;50807;52.436;13.346;2022-11-20T00:34:30;100688.00;;;4.90
15845;BMP180;50807;52.436;13.346;2022-11-20T00:35:01;100692.00;;;4.90
15845;BMP180;50807;52.436;13.346;2022-11-20T00:35:31;100685.00;;;4.90
15845;BMP180;50807;52.436;13.346;2022-11-20T00:36:06;100691.00;;;4.90
15845;BMP180;50807;52.436;13.346;2022-11-20T00:36:37;100686.00;;;4.90
15845;BMP180;50807;52.436;13.346;2022-11-20T00:37:08;100688.00;;;4.90
15845;BMP180;50807;52.436;13.346;2022-11-20T00:37:39;100690.00;;;4.90
15845;BMP180;50807;52.436;13.346;2022-11-20T00:38:10;100686.00;;;4.90
15845;BMP180;50807;52.436;13.346;2022-11-20T00:38:41;100693.00;;;4.90
15845;BMP180;50807;52.436;13.346;2022-11-20T00:39:13;100689.00;;;4.90
15845;BMP180;50807;52.436;13.346;2022-11-20T00:39:44;100693.00;;;4.90
15845;BMP180;50807;52.436;13.346;2022-11-20T00:40:15;100683.00;;;4.90
15845;BMP180;50807;52.436;13.346;2022-11-20T00:40:54;100686.00;;;4.90
15845;BMP180;50807;52.436;13.346;2022-11-20T00:41:27;100685.00;;;4.90
15845;BMP180;50807;52.436;13.346;2022-11-20T00:41:58;100697.00;;;4.90
15845;BMP180;50807;52.436;13.346;2022-11-20T00:42:31;100694.00;;;4.90
15845;BMP180;50807;52.436;13.346;2022-11-20T00:43:03;100692.00;;;5.00
15845;BMP180;50807;52.436;13.346;2022-11-20T00:43:34;100690.00;;;5.00
15845;BMP180;50807;52.436;13.346;2022-11-20T00:44:06;100691.00;;;5.00
15845;BMP180;50807;52.436;13.346;2022-11-20T00:44:37;100686.00;;;5.00
15845;BMP180;50807;52.436;13.346;2022-11-20T00:45:08;100684.00;;;5.00
15845;BMP180;50807;52.436;13.346;2022-11-20T00:45:40;100684.00;;;5.00
15845;BMP180;50807;52.436;13.346;2022-11-20T00:46:14;100695.00;;;5.00
15845;BMP180;50807;52.436;13.346;2022-11-20T00:46:45;100684.00;;;5.00
15845;BMP180;50807;52.436;13.346;2022-11-20T00:47:17;100688.00;;;5.00
15845;BMP180;50807;52.436;13.346;2022-11-20T00:47:48;100692.00;;;5.00
15845;BMP180;50807;52.436;13.346;2022-11-20T00:48:18;100699.00;;;5.00
15845;BMP180;50807;52.436;13.346;2022-11-20T00:48:50;100687.00;;;5.00
15845;BMP180;50807;52.436;13.346;2022-11-20T00:49:21;100691.00;;;5.00
15845;BMP180;50807;52.436;13.346;2022-11-20T00:49:52;100689.00;;;5.00
15845;BMP180;50807;52.436;13.346;2022-11-20T00:50:23;100696.00;;;5.00
15845;BMP180;50807;52.436;13.346;2022-11-20T00:50:55;100694.00;;;5.00
15845;BMP180;50807;52.436;13.346;2022-11-20T00:51:27;100697.00;;;5.00
15845;BMP180;50807;52.436;13.346;2022-11-20T00:51:59;100694.00;;;5.00
15845;BMP180;50807;52.436;13.346;2022-11-20T00:52:30;100697.00;;;5.00
15845;BMP180;50807;52.436;13.346;2022-11-20T00:53:00;100690.00;;;5.00
15845;BMP180;50807;52.436;13.346;2022-11-20T00:53:32;100697.00;;;5.00
15845;BMP180;50807;52.436;13.346;2022-11-20T00:54:03;100696.00;;;5.00
15845;BMP180;50807;52.436;13.346;2022-11-20T00:54:34;100692.00;;;5.00
15845;BMP180;50807;52.436;13.346;2022-11-20T00:55:06;100702.00;;;5.00
15845;BMP180;50807;52.436;13.346;2022-11-20T00:55:37;100694.00;;;5.00
15845;BMP180;50807;52.436;13.346;2022-11-20T00:56:12;100689.00;;;5.00
15845;BMP180;50807;52.436;13.346;2022-11-20T00:56:43;100688.00;;;5.00
15845;BMP180;50807;52.436;13.346;2022-11-20T00:57:14;100691.00;;;5.00
15845;BMP180;50807;52.436;13.346;2022-11-20T00:57:46;100687.00;;;5.00
15845;BMP180;50807;52.436;13.346;2022-11-20T00:58:17;100684.00;;;5.00
15845;BMP180;50807;52.436;13.346;2022-11-20T00:58:49;100690.00;;;5.00
15845;BMP180;50807;52.436;13.346;2022-11-20T00:59:21;100693.00;;;5.00
15845;BMP180;50807;52.436;13.346;2022-11-20T00:59:51;100698.00;;;5.00
15845;BMP180;50807;52.436;13.346;2022-11-20T01:00:22;100690.00;;;5.00
15845;BMP180;50807;52.436;13.346;2022-11-20T01:00:53;100694.00;;;5.00
15845;BMP180;50807;52.436;13.346;2022-11-20T01:01:26;100685.00;;;5.00
15845;BMP180;50807;52.436;13.346;2022-11-20T01:01:59;100688.00;;;5.00
15845;BMP180;50807;52.436;13.346;2022-11-20T01:02:31;100689.00;;;5.00
15845;BMP180;50807;52.436;13.346;2022-11-20T01:03:01;100683.00;;;4.90
15845;BMP180;50807;52.436;13.346;2022-11-20T01:03:33;100688.00;;;5.00
15845;BMP180;50807;52.436;13.346;2022-11-20T01:04:05;100693.00;;;5.00
15845;BMP180;50807;52.436;13.346;2022-11-20T01:04:36;100693.00;;;5.00
15845;BMP180;50807;52.436;13.346;2022-11-20T01:05:07;100691.00;;;4.90
15845;BMP180;50807;52.436;13.346;2022-11-20T01:05:39;100692.00;;;5.00
15845;BMP180;50807;52.436;13.346;2022-11-20T01:06:13;100688.00;;;4.90
15845;BMP180;50807;52.436;13.346;2022-11-20T01:06:45;100686.00;;;4.90
15845;BMP180;50807;52.436;13.346;2022-11-20T01:07:16;100692.00;;;4.90
15845;BMP180;50807;52.436;13.346;2022-11-20T01:07:47;100690.00;;;4.90
15845;BMP180;50807;52.436;13.346;2022-11-20T01:08:18;100687.00;;;4.90
15845;BMP180;50807;52.436;13.346;2022-11-20T01:08:53;100698.00;;;4.90
15845;BMP180;50807;52.436;13.346;2022-11-20T01:09:23;100694.00;;;4.90
15845;BMP180;50807;52.436;13.346;2022-11-20T01:09:55;100695.00;;;4.90
15845;BMP180;50807;52.436;13.346;2022-11-20T01:10:26;100685.00;;;4.90
15845;BMP180;50807;52.436;13.346;2022-11-20T01:10:59;100695.00;;;4.90
15845;BMP180;50807;52.436;13.346;2022-11-20T01:11:36;100692.00;;;4.90
15845;BMP180;50807;52.436;13.346;2022-11-20T01:12:07;100692.00;;;4.90
15845;BMP180;50807;52.436;13.346;2022-11-20T01:12:37;100680.00;;;4.90
15845;BMP180;50807;52.436;13.346;2022-11-20T01:13:10;100685.00;;;4.90
15845;BMP180;50807;52.436;13.346;2022-11-20T01:14:03;100691.00;;;4.80
15845;BMP180;50807;52.436;13.346;2022-11-20T01:14:34;100692.00;;;4.80
15845;BMP180;50807;52.436;13.346;2022-11-20T01:15:06;100688.00;;;4.80
15845;BMP180;50807;52.436;13.346;2022-11-20T01:15:38;100682.00;;;4.80
15845;BMP180;50807;52.436;13.346;2022-11-20T01:16:12;100689.00;;;4.80
15845;BMP180;50807;52.436;13.346;2022-11-20T01:16:46;100690.00;;;4.80
15845;BMP180;50807;52.436;13.346;2022-11-20T01:17:18;100691.00;;;4.80
15845;BMP180;50807;52.436;13.346;2022-11-20T01:17:49;100681.00;;;4.80
15845;BMP180;50807;52.436;13.346;2022-11-20T01:18:21;100688.00;;;4.80
15845;BMP180;50807;52.436;13.346;2022-11-20T01:18:54;100690.00;;;4.80
15845;BMP180;50807;52.436;13.346;2022-11-20T01:19:26;100690.00;;;4.80
15845;BMP180;50807;52.436;13.346;2022-11-20T01:19:58;100680.00;;;4.80
15845;BMP180;50807;52.436;13.346;2022-11-20T01:20:28;100686.00;;;4.80
15845;BMP180;50807;52.436;13.346;2022-11-20T01:21:05;100690.00;;;4.80
15845;BMP180;50807;52.436;13.346;2022-11-20T01:21:40;100682.00;;;4.80
15845;BMP180;50807;52.436;13.346;2022-11-20T01:22:11;100682.00;;;4.80
15845;BMP180;50807;52.436;13.346;2022-11-20T01:22:42;100681.00;;;4.80
15845;BMP180;50807;52.436;13.346;2022-11-20T01:23:13;100686.00;;;4.80
15845;BMP180;50807;52.436;13.346;2022-11-20T01:23:45;100680.00;;;4.80
15845;BMP180;50807;52.436;13.346;2022-11-20T01:24:19;100682.00;;;4.80
15845;BMP180;50807;52.436;13.346;2022-11-20T01:24:51;100677.00;;;4.80
15845;BMP180;50807;52.436;13.346;2022-11-20T01:25:22;100684.00;;;4.80
15845;BMP180;50807;52.436;13.346;2022-11-20T01:25:53;100674.00;;;4.80
15845;BMP180;50807;52.436;13.346;2022-11-20T01:26:27;100679.00;;;4.80
15845;BMP180;50807;52.436;13.346;2022-11-20T01:26:59;100675.00;;;4.80
15845;BMP180;50807;52.436;13.346;2022-11-20T01:27:29;100678.00;;;4.80
15845;BMP180;50807;52.436;13.346;2022-11-20T01:28:00;100685.00;;;4.80
15845;BMP180;50807;52.436;13.346;2022-11-20T01:28:34;100678.00;;;4.80
15845;BMP180;50807;52.436;13.346;2022-11-20T01:29:06;100679.00;;;4.80
15845;BMP180;50807;52.436;13.346;2022-11-20T01:29:39;100683.00;;;4.80
15845;BMP180;50807;52.436;13.346;2022-11-20T01:30:12;100678.00;;;4.80
15845;BMP180;50807;52.436;13.346;2022-11-20T01:30:43;100684.00;;;4.80
15845;BMP180;50807;52.436;13.346;2022-11-20T01:31:16;100678.00;;;4.70
15845;BMP180;50807;52.436;13.346;2022-11-20T01:31:48;100691.00;;;4.80
15845;BMP180;50807;52.436;13.346;2022-11-20T01:32:19;100682.00;;;4.80
15845;BMP180;50807;52.436;13.346;2022-11-20T01:32:50;100685.00;;;4.80
15845;BMP180;50807;52.436;13.346;2022-11-20T01:33:21;100679.00;;;4.80
15845;BMP180;50807;52.436;13.346;2022-11-20T01:33:56;100679.00;;;4.70
15845;BMP180;50807;52.436;13.346;2022-11-20T01:34:27;100683.00;;;4.70
15845;BMP180;50807;52.436;13.346;2022-11-20T01:34:57;100689.00;;;4.70
15845;BMP180;50807;52.436;13.346;2022-11-20T01:35:29;100672.00;;;4.70
15845;BMP180;50807;52.436;13.346;2022-11-20T01:36:04;100678.00;;;4.70
15845;BMP180;50807;52.436;13.346;2022-11-20T01:36:38;100680.00;;;4.70
15845;BMP180;50807;52.436;13.346;2022-11-20T01:37:08;100685.00;;;4.70
15845;BMP180;50807;52.436;13.346;2022-11-20T01:37:40;100686.00;;;4.70
15845;BMP180;50807;52.436;13.346;2022-11-20T01:38:11;100672.00;;;4.70
15845;BMP180;50807;52.436;13.346;2022-11-20T01:38:43;100688.00;;;4.70
15845;BMP180;50807;52.436;13.346;2022-11-20T01:39:16;100680.00;;;4.60
15845;BMP180;50807;52.436;13.346;2022-11-20T01:39:48;100682.00;;;4.60
15845;BMP180;50807;52.436;13.346;2022-11-20T01:40:19;100685.00;;;4.60
15845;BMP180;50807;52.436;13.346;2022-11-20T01:40:56;100688.00;;;4.60
15845;BMP180;50807;52.436;13.346;2022-11-20T01:41:29;100688.00;;;4.60
15845;BMP180;50807;52.436;13.346;2022-11-20T01:42:19;100682.00;;;4.60
15845;BMP180;50807;52.436;13.346;2022-11-20T01:43:16;100685.00;;;4.50
15845;BMP180;50807;52.436;13.346;2022-11-20T01:43:56;100684.00;;;4.50
15845;BMP180;50807;52.436;13.346;2022-11-20T01:44:52;100678.00;;;4.40
15845;BMP180;50807;52.436;13.346;2022-11-20T01:45:58;100682.00;;;4.30
15845;BMP180;50807;52.436;13.346;2022-11-20T01:46:32;100676.00;;;4.40
15845;BMP180;50807;52.436;13.346;2022-11-20T01:47:06;100681.00;;;4.50
15845;BMP180;50807;52.436;13.346;2022-11-20T01:47:43;100678.00;;;4.40
15845;BMP180;50807;52.436;13.346;2022-11-20T01:48:15;100680.00;;;4.50
15845;BMP180;50807;52.436;13.346;2022-11-20T01:48:54;100681.00;;;4.50
15845;BMP180;50807;52.436;13.346;2022-11-20T01:49:34;100677.00;;;4.50
15845;BMP180;50807;52.436;13.346;2022-11-20T01:50:15;100683.00;;;4.50
15845;BMP180;50807;52.436;13.346;2022-11-20T01:50:48;100674.00;;;4.50
15845;BMP180;50807;52.436;13.346;2022-11-20T01:51:26;100682.00;;;4.50
15845;BMP180;50807;52.436;13.346;2022-11-20T01:52:04;100685.00;;;4.50
15845;BMP180;50807;52.436;13.346;2022-11-20T01:52:42;100683.00;;;4.50
15845;BMP180;50807;52.436;13.346;2022-11-20T01:53:18;100679.00;;;4.50
15845;BMP180;50807;52.436;13.346;2022-11-20T01:53:53;100676.00;;;4.50
15845;BMP180;50807;52.436;13.346;2022-11-20T01:54:33;100678.00;;;4.50
15845;BMP180;50807;52.436;13.346;2022-11-20T01:55:09;100677.00;;;4.60
15845;BMP180;50807;52.436;13.346;2022-11-20T01:55:46;100678.00;;;4.50
15845;BMP180;50807;52.436;13.346;2022-11-20T01:56:20;100674.00;;;4.60
15845;BMP180;50807;52.436;13.346;2022-11-20T01:56:55;100680.00;;;4.50
15845;BMP180;50807;52.436;13.346;2022-11-20T01:57:31;100672.00;;;4.50
15845;BMP180;50807;52.436;13.346;2022-11-20T01:58:04;100678.00;;;4.60
15845;BMP180;50807;52.436;13.346;2022-11-20T01:58:42;100674.00;;;4.50
15845;BMP180;50807;52.436;13.346;2022-11-20T01:59:18;100675.00;;;4.50
15845;BMP180;50807;52.436;13.346;2022-11-20T01:59:56;100679.00;;;4.50
15845;BMP180;50807;52.436;13.346;2022-11-20T02:00:28;100678.00;;;4.60
15845;BMP180;50807;52.436;13.346;2022-11-20T02:00:59;100679.00;;;4.60
15845;BMP180;50807;52.436;13.346;2022-11-20T02:01:31;100670.00;;;4.60
15845;BMP180;50807;52.436;13.346;2022-11-20T02:02:02;100675.00;;;4.60
15845;BMP180;50807;52.436;13.346;2022-11-20T02:02:33;100672.00;;;4.70
15845;BMP180;50807;52.436;13.346;2022-11-20T02:03:09;100675.00;;;4.60
15845;BMP180;50807;52.436;13.346;2022-11-20T02:03:43;100675.00;;;4.60
15845;BMP180;50807;52.436;13.346;2022-11-20T02:04:16;100677.00;;;4.70
15845;BMP180;50807;52.436;13.346;2022-11-20T02:04:49;100679.00;;;4.70
15845;BMP180;50807;52.436;13.346;2022-11-20T02:05:27;100671.00;;;4.60
15845;BMP180;50807;52.436;13.346;2022-11-20T02:06:10;100678.00;;;4.60
15845;BMP180;50807;52.436;13.346;2022-11-20T02:06:47;100677.00;;;4.60
15845;BMP180;50807;52.436;13.346;2022-11-20T02:07:20;100671.00;;;4.70
15845;BMP180;50807;52.436;13.346;2022-11-20T02:07:54;100673.00;;;4.70
15845;BMP180;50807;52.436;13.346;2022-11-20T02:08:27;100662.00;;;4.70
15845;BMP180;50807;52.436;13.346;2022-11-20T02:08:59;100667.00;;;4.70
15845;BMP180;50807;52.436;13.346;2022-11-20T02:09:31;100671.00;;;4.70
15845;BMP180;50807;52.436;13.346;2022-11-20T02:10:03;100667.00;;;4.70
15845;BMP180;50807;52.436;13.346;2022-11-20T02:10:35;100661.00;;;4.70
15845;BMP180;50807;52.436;13.346;2022-11-20T02:11:06;100664.00;;;4.70
15845;BMP180;50807;52.436;13.346;2022-11-20T02:11:38;100672.00;;;4.70
15845;BMP180;50807;52.436;13.346;2022-11-20T02:12:09;100667.00;;;4.70
15845;BMP180;50807;52.436;13.346;2022-11-20T02:13:00;100660.00;;;4.60
15845;BMP180;50807;52.436;13.346;2022-11-20T02:13:50;100668.00;;;4.50
15845;BMP180;50807;52.436;13.346;2022-11-20T02:14:23;100655.00;;;4.60
15845;BMP180;50807;52.436;13.346;2022-11-20T02:14:56;100659.00;;;4.60
15845;BMP180;50807;52.436;13.346;2022-11-20T02:15:27;100664.00;;;4.60
15845;BMP180;50807;52.436;13.346;2022-11-20T02:15:59;100655.00;;;4.60
15845;BMP180;50807;52.436;13.346;2022-11-20T02:16:34;100663.00;;;4.60
15845;BMP180;50807;52.436;13.346;2022-11-20T02:17:08;100662.00;;;4.60
15845;BMP180;50807;52.436;13.346;2022-11-20T02:17:39;100658.00;;;4.60
15845;BMP180;50807;52.436;13.346;2022-11-20T02:18:11;100667.00;;;4.60
15845;BMP180;50807;52.436;13.346;2022-11-20T02:18:44;100662.00;;;4.60
15845;BMP180;50807;52.436;13.346;2022-11-20T02:19:24;100661.00;;;4.50
15845;BMP180;50807;52.436;13.346;2022-11-20T02:19:56;100655.00;;;4.50
15845;BMP180;50807;52.436;13.346;2022-11-20T02:20:28;100657.00;;;4.50
15845;BMP180;50807;52.436;13.346;2022-11-20T02:21:07;100653.00;;;4.50
15845;BMP180;50807;52.436;13.346;2022-11-20T02:21:46;100648.00;;;4.40
15845;BMP180;50807;52.436;13.346;2022-11-20T02:22:27;100659.00;;;4.40
15845;BMP180;50807;52.436;13.346;2022-11-20T02:23:08;100655.00;;;4.40
15845;BMP180;50807;52.436;13.346;2022-11-20T02:24:05;100659.00;;;4.30
15845;BMP180;50807;52.436;13.346;2022-11-20T02:24:36;100655.00;;;4.30
15845;BMP180;50807;52.436;13.346;2022-11-20T02:25:09;100659.00;;;4.40
15845;BMP180;50807;52.436;13.346;2022-11-20T02:25:42;100660.00;;;4.40
15845;BMP180;50807;52.436;13.346;2022-11-20T02:26:15;100656.00;;;4.40
15845;BMP180;50807;52.436;13.346;2022-11-20T02:26:52;100665.00;;;4.30
15845;BMP180;50807;52.436;13.346;2022-11-20T02:27:25;100661.00;;;4.40
15845;BMP180;50807;52.436;13.346;2022-11-20T02:27:56;100660.00;;;4.40
15845;BMP180;50807;52.436;13.346;2022-11-20T02:28:27;100651.00;;;4.40
15845;BMP180;50807;52.436;13.346;2022-11-20T02:29:00;100669.00;;;4.40
15845;BMP180;50807;52.436;13.346;2022-11-20T02:29:38;100661.00;;;4.30
15845;BMP180;50807;52.436;13.346;2022-11-20T02:30:11;100660.00;;;4.40
15845;BMP180;50807;52.436;13.346;2022-11-20T02:30:43;100664.00;;;4.40
15845;BMP180;50807;52.436;13.346;2022-11-20T02:31:13;100650.00;;;4.40
15845;BMP180;50807;52.436;13.346;2022-11-20T02:31:45;100655.00;;;4.40
15845;BMP180;50807;52.436;13.346;2022-11-20T02:32:20;100660.00;;;4.40
15845;BMP180;50807;52.436;13.346;2022-11-20T02:33:24;100653.00;;;4.40
15845;BMP180;50807;52.436;13.346;2022-11-20T02:33:56;100652.00;;;4.40
15845;BMP180;50807;52.436;13.346;2022-11-20T02:34:27;100661.00;;;4.40
15845;BMP180;50807;52.436;13.346;2022-11-20T02:35:07;100654.00;;;4.30
15845;BMP180;50807;52.436;13.346;2022-11-20T02:35:43;100659.00;;;4.30
15845;BMP180;50807;52.436;13.346;2022-11-20T02:36:16;100659.00;;;4.30
15845;BMP180;50807;52.436;13.346;2022-11-20T02:36:48;100656.00;;;4.30
15845;BMP180;50807;52.436;13.346;2022-11-20T02:37:21;100648.00;;;4.40
15845;BMP180;50807;52.436;13.346;2022-11-20T02:37:56;100655.00;;;4.30
15845;BMP180;50807;52.436;13.346;2022-11-20T02:38:27;100646.00;;;4.30
15845;BMP180;50807;52.436;13.346;2022-11-20T02:39:00;100655.00;;;4.30
15845;BMP180;50807;52.436;13.346;2022-11-20T02:39:30;100652.00;;;4.30
15845;BMP180;50807;52.436;13.346;2022-11-20T02:40:01;100659.00;;;4.40
15845;BMP180;50807;52.436;13.346;2022-11-20T02:40:33;100640.00;;;4.30
15845;BMP180;50807;52.436;13.346;2022-11-20T02:41:04;100656.00;;;4.30
15845;BMP180;50807;52.436;13.346;2022-11-20T02:41:36;100655.00;;;4.30
15845;BMP180;50807;52.436;13.346;2022-11-20T02:42:08;100654.00;;;4.30
15845;BMP180;50807;52.436;13.346;2022-11-20T02:42:39;100649.00;;;4.30
15845;BMP180;50807;52.436;13.346;2022-11-20T02:43:10;100655.00;;;4.30
15845;BMP180;50807;52.436;13.346;2022-11-20T02:43:42;100651.00;;;4.30
15845;BMP180;50807;52.436;13.346;2022-11-20T02:44:12;100649.00;;;4.30
15845;BMP180;50807;52.436;13.346;2022-11-20T02:44:43;100642.00;;;4.30
15845;BMP180;50807;52.436;13.346;2022-11-20T02:45:15;100652.00;;;4.30
15845;BMP180;50807;52.436;13.346;2022-11-20T02:45:46;100646.00;;;4.30
15845;BMP180;50807;52.436;13.346;2022-11-20T02:46:16;100649.00;;;4.30
15845;BMP180;50807;52.436;13.346;2022-11-20T02:46:48;100650.00;;;4.30
15845;BMP180;50807;52.436;13.346;2022-11-20T02:47:19;100648.00;;;4.30
15845;BMP180;50807;52.436;13.346;2022-11-20T02:47:50;100646.00;;;4.30
15845;BMP180;50807;52.436;13.346;2022-11-20T02:48:22;100652.00;;;4.30
15845;BMP180;50807;52.436;13.346;2022-11-20T02:48:52;100646.00;;;4.30
15845;BMP180;50807;52.436;13.346;2022-11-20T02:49:23;100644.00;;;4.30
15845;BMP180;50807;52.436;13.346;2022-11-20T02:49:55;100640.00;;;4.30
15845;BMP180;50807;52.436;13.346;2022-11-20T02:50:26;100645.00;;;4.30
15845;BMP180;50807;52.436;13.346;2022-11-20T02:50:57;100653.00;;;4.40
15845;BMP180;50807;52.436;13.346;2022-11-20T02:51:28;100654.00;;;4.30
15845;BMP180;50807;52.436;13.346;2022-11-20T02:52:00;100650.00;;;4.30
15845;BMP180;50807;52.436;13.346;2022-11-20T02:52:31;100650.00;;;4.30
15845;BMP180;50807;52.436;13.346;2022-11-20T02:53:02;100644.00;;;4.40
15845;BMP180;50807;52.436;13.346;2022-11-20T02:53:33;100645.00;;;4.30
15845;BMP180;50807;52.436;13.346;2022-11-20T02:54:05;100648.00;;;4.30
15845;BMP180;50807;52.436;13.346;2022-11-20T02:54:36;100645.00;;;4.30
15845;BMP180;50807;52.436;13.346;2022-11-20T02:55:07;100652.00;;;4.30
15845;BMP180;50807;52.436;13.346;2022-11-20T02:55:38;100638.00;;;4.30
15845;BMP180;50807;52.436;13.346;2022-11-20T02:56:10;100630.00;;;4.30
15845;BMP180;50807;52.436;13.346;2022-11-20T02:56:41;100645.00;;;4.30
15845;BMP180;50807;52.436;13.346;2022-11-20T02:57:12;100644.00;;;4.30
15845;BMP180;50807;52.436;13.346;2022-11-20T02:57:43;100634.00;;;4.20
15845;BMP180;50807;52.436;13.346;2022-11-20T02:58:14;100637.00;;;4.20
15845;BMP180;50807;52.436;13.346;2022-11-20T02:58:45;100635.00;;;4.20
15845;BMP180;50807;52.436;13.346;2022-11-20T02:59:17;100639.00;;;4.20
15845;BMP180;50807;52.436;13.346;2022-11-20T02:59:47;100644.00;;;4.20
15845;BMP180;50807;52.436;13.346;2022-11-20T03:00:18;100634.00;;;4.20
15845;BMP180;50807;52.436;13.346;2022-11-20T03:00:49;100634.00;;;4.20
15845;BMP180;50807;52.436;13.346;2022-11-20T03:01:21;100635.00;;;4.20
15845;BMP180;50807;52.436;13.346;2022-11-20T03:01:52;100631.00;;;4.20
15845;BMP180;50807;52.436;13.346;2022-11-20T03:02:23;100634.00;;;4.20
15845;BMP180;50807;52.436;13.346;2022-11-20T03:02:54;100639.00;;;4.20
15845;BMP180;50807;52.436;13.346;2022-11-20T03:03:25;100638.00;;;4.20
15845;BMP180;50807;52.436;13.346;2022-11-20T03:03:56;100628.00;;;4.20
15845;BMP180;50807;52.436;13.346;2022-11-20T03:04:27;100641.00;;;4.20
15845;BMP180;50807;52.436;13.346;2022-11-20T03:04:58;100634.00;;;4.20
15845;BMP180;50807;52.436;13.346;2022-11-20T03:05:29;100642.00;;;4.20
15845;BMP180;50807;52.436;13.346;2022-11-20T03:06:01;100634.00;;;4.20
15845;BMP180;50807;52.436;13.346;2022-11-20T03:06:32;100633.00;;;4.20
15845;BMP180;50807;52.436;13.346;2022-11-20T03:07:03;100629.00;;;4.20
15845;BMP180;50807;52.436;13.346;2022-11-20T03:07:35;100636.00;;;4.20